Latest Weather Observations for Wilsons Promontory

IDV60801

Issued at 11:12 pm EST Thursday 20 September 2018 (issued every 10 minutes, with the page automatically refreshed every 10 minutes)

About weather observations | Map of weather stations | Latest weather observations for VIC | Other Formats
Station Details ID: 085096 Name: WILSONS PROMONTORY LIGHTHOUSE Lat: -39.13 Lon: 146.42 Height: 95.0 m
Data from the previous 72 hours. | See also: Recent months at Wilsons Promontory
Date/Time
EST
Temp
°C
App
Temp
°C
Dew
Point
°C
Rel
Hum
%
Delta-T
°C
Wind Press
QNH
hPa
Press
MSL
hPa
Rain since
9am
mm
Dir  Spd
km/h
Gust
km/h
Spd
kts
Gust
kts
20/11:03pm 11.8 5.4 8.5 80 1.6 W 32 50 17 27 1022.1 - 0.0
20/11:00pm 11.9 5.9 8.6 80 1.6 W 30 44 16 24 1022.2 - 0.0
20/10:38pm 12.0 6.3 8.5 79 1.7 W 28 46 15 25 1022.1 - 0.0
20/10:30pm 12.0 5.4 8.5 79 1.7 W 33 46 18 25 1022.0 - 0.0
20/10:00pm 11.8 5.4 8.6 81 1.6 W 32 44 17 24 1022.0 - 0.0
20/09:30pm 11.6 5.6 8.5 81 1.5 W 30 43 16 23 1021.9 - 0.0
20/09:00pm 11.6 5.5 8.3 80 1.6 W 30 41 16 22 1021.5 1021.6 0.0
20/08:30pm 11.6 5.0 7.9 78 1.8 W 32 43 17 23 1021.4 - 0.0
20/08:00pm 11.7 4.8 7.4 75 2.1 W 33 56 18 30 1021.1 - 0.0
20/07:30pm 12.1 5.2 7.2 72 2.4 W 33 52 18 28 1020.8 - 0.0
20/07:15pm 12.0 4.3 6.9 71 2.5 W 37 57 20 31 1020.7 - 0.0
20/07:00pm 11.7 5.2 6.4 70 2.5 W 30 41 16 22 1020.5 - 0.0
20/06:30pm 11.9 4.7 5.8 66 2.9 W 33 54 18 29 1020.3 - 0.0
20/06:02pm 11.8 5.2 5.9 67 2.8 W 30 48 16 26 1020.1 - 0.0
20/06:00pm 11.8 5.2 5.9 67 2.8 W 30 43 16 23 1020.1 1020.2 0.0
20/05:40pm 11.8 5.5 5.9 67 2.8 W 28 46 15 25 1020.0 - 0.0
20/05:30pm 12.0 5.1 6.3 68 2.7 W 32 46 17 25 1019.8 - 0.0
20/05:01pm 12.2 5.2 6.7 69 2.6 W 33 52 18 28 1019.5 - 0.0
20/05:00pm 12.2 4.8 6.7 69 2.6 W 35 52 19 28 1019.5 - 0.0
20/04:33pm 12.3 5.0 7.2 71 2.5 W 35 54 19 29 1019.4 - 0.0
20/04:30pm 12.3 4.6 7.2 71 2.5 W 37 54 20 29 1019.5 - 0.0
20/04:00pm 12.4 4.4 7.3 71 2.5 W 39 57 21 31 1019.3 - 0.0
20/03:34pm 12.3 5.0 7.2 71 2.5 W 35 54 19 29 1019.1 - 0.0
20/03:30pm 12.2 4.5 7.3 72 2.4 W 37 54 20 29 1019.2 - 0.0
20/03:00pm 12.5 4.9 7.4 71 2.5 W 37 56 20 30 1019.2 1019.3 0.0
20/02:31pm 12.2 4.5 7.1 71 2.5 W 37 56 20 30 1019.4 - 0.0
20/02:30pm 12.2 4.1 7.1 71 2.5 W 39 56 21 30 1019.3 - 0.0
20/02:00pm 12.4 5.8 7.7 73 2.3 W 32 54 17 29 1019.3 - 0.0
20/01:30pm 12.0 4.7 7.3 73 2.3 W 35 56 19 30 1019.0 - 0.0
20/01:00pm 11.8 4.1 6.9 72 2.4 W 37 57 20 31 1019.2 - 0.0
20/12:32pm 12.3 5.3 7.0 70 2.6 W 33 52 18 28 1019.4 - 0.0
20/12:30pm 12.4 5.1 7.1 70 2.6 W 35 50 19 27 1019.4 - 0.0
20/12:00pm 12.3 4.5 6.8 69 2.6 W 37 50 20 27 1019.2 1019.3 0.0
20/11:41am 12.4 5.5 7.1 70 2.6 W 33 52 18 28 1019.2 - 0.0
20/11:30am 11.6 4.5 6.3 70 2.5 W 33 50 18 27 1019.2 - 0.0
20/11:00am 12.0 4.3 5.2 63 3.1 W 35 54 19 29 1018.9 - 0.0
20/10:30am 11.9 4.3 6.0 67 2.8 W 35 50 19 27 1018.7 - 0.0
20/10:03am 12.2 5.6 4.4 59 3.6 W 28 48 15 26 1018.5 - 0.0
20/10:00am 12.3 6.6 4.8 60 3.5 W 24 43 13 23 1018.4 - 0.0
20/09:48am 11.4 4.4 4.2 61 3.2 W 30 48 16 26 1018.2 - 0.0
20/09:30am 11.7 4.3 5.1 64 3.0 W 33 41 18 22 1018.2 - 0.0
20/09:00am 11.8 5.8 5.4 65 3.0 W 26 37 14 20 1018.2 1018.3 4.0
20/08:30am 11.6 4.9 5.7 67 2.8 W 30 43 16 23 1018.0 - 4.0
20/08:00am 11.0 5.6 6.4 73 2.2 W 24 37 13 20 1018.0 - 4.0
20/07:30am 9.9 3.5 5.3 73 2.1 WNW 28 39 15 21 1017.8 - 4.0
20/07:00am 9.7 2.2 4.5 70 2.3 W 33 46 18 25 1017.3 - 4.0
20/06:42am 9.6 3.0 4.4 70 2.3 W 28 48 15 26 1017.0 - 4.0
20/06:30am 9.4 2.5 4.4 71 2.2 W 30 39 16 21 1017.0 - 4.0
20/06:00am 9.6 2.3 4.6 71 2.2 W 32 44 17 24 1016.6 1016.7 4.0
20/05:30am 9.8 4.3 4.0 67 2.6 W 22 37 12 20 1016.4 - 4.0
20/05:00am 9.7 4.3 4.3 69 2.4 W 22 33 12 18 1016.0 - 4.0
20/04:30am 9.8 3.2 4.4 69 2.4 W 28 37 15 20 1015.9 - 4.0
20/04:00am 9.7 4.3 4.3 69 2.4 W 22 32 12 17 1015.8 - 4.0
20/03:30am 9.7 4.3 4.5 70 2.3 W 22 33 12 18 1015.7 - 4.0
20/03:00am 9.9 4.1 4.5 69 2.4 W 24 37 13 20 1015.7 1015.8 4.0
20/02:30am 9.8 5.0 4.4 69 2.4 W 19 32 10 17 1015.9 - 4.0
20/02:00am 9.9 4.4 3.9 66 2.7 W 22 33 12 18 1016.0 - 4.0
20/01:30am 10.1 4.3 4.3 67 2.6 W 24 35 13 19 1016.1 - 4.0
20/01:00am 10.0 4.6 4.6 69 2.4 W 22 37 12 20 1016.1 - 4.0
20/12:30am 9.7 3.9 4.5 70 2.3 W 24 37 13 20 1016.1 - 4.0
20/12:00am 9.6 4.2 4.6 71 2.2 W 22 32 12 17 1016.1 1016.3 4.0
 
Date/Time
EST
Temp
°C
App
Temp
°C
Dew
Point
°C
Rel
Hum
%
Delta-T
°C
Wind Press
QNH
hPa
Press
MSL
hPa
Rain since
9am
mm
Dir  Spd
km/h
Gust
km/h
Spd
kts
Gust
kts
19/11:30pm 9.3 3.1 4.3 71 2.2 WSW 26 50 14 27 1015.7 - 4.0
19/11:25pm 9.5 2.3 4.9 73 2.1 SW 32 50 17 27 1015.6 - 4.0
19/11:23pm 9.8 1.7 5.2 73 2.1 SW 37 50 20 27 1015.8 - 4.0
19/11:00pm 8.9 3.0 4.1 72 2.1 W 24 28 13 15 1016.0 - 4.0
19/10:42pm 9.6 2.6 4.2 69 2.4 W 30 48 16 26 1015.7 - 3.6
19/10:30pm 10.0 2.6 4.0 66 2.7 W 32 41 17 22 1015.7 - 3.4
19/10:13pm 10.7 2.4 4.2 64 2.9 WSW 37 56 20 30 1015.2 - 3.4
19/10:00pm 10.8 1.7 4.0 63 3.0 WSW 41 52 22 28 1015.2 - 3.4
19/09:40pm 10.7 4.2 4.8 67 2.7 W 28 46 15 25 1015.5 - 3.4
19/09:30pm 10.7 5.5 5.5 70 2.4 W 22 32 12 17 1015.4 - 3.4
19/09:00pm 10.3 3.9 5.1 70 2.4 W 28 39 15 21 1015.2 1015.3 3.4
19/08:30pm 10.1 3.3 4.9 70 2.4 W 30 44 16 24 1014.9 - 3.4
19/08:00pm 10.0 2.8 5.0 71 2.3 W 32 44 17 24 1014.4 - 3.4
19/07:30pm 9.9 2.1 5.1 72 2.2 W 35 44 19 24 1014.2 - 3.4
19/07:00pm 10.3 3.9 5.1 70 2.4 W 28 50 15 27 1013.8 - 3.4
19/06:59pm 10.3 3.5 4.9 69 2.4 W 30 50 16 27 1013.8 - 3.4
19/06:30pm 10.2 3.3 4.6 68 2.5 W 30 44 16 24 1013.4 - 3.4
19/06:00pm 10.3 2.3 4.0 65 2.8 W 35 56 19 30 1013.0 1013.1 3.4
19/05:30pm 10.5 1.5 4.4 66 2.7 W 41 54 22 29 1012.8 - 3.4
19/05:00pm 10.8 2.2 4.5 65 2.8 W 39 48 21 26 1012.5 - 3.4
19/04:40pm 10.9 2.3 4.6 65 2.9 W 39 57 21 31 1012.1 - 3.4
19/04:30pm 10.9 3.1 4.8 66 2.8 W 35 50 19 27 1012.2 - 3.4
19/04:00pm 11.1 2.1 4.3 63 3.1 W 41 54 22 29 1011.7 - 3.4
19/03:45pm 11.2 2.6 4.7 64 3.0 W 39 57 21 31 1011.7 - 3.4
19/03:30pm 10.9 2.3 4.4 64 2.9 W 39 54 21 29 1011.4 - 3.4
19/03:00pm 10.9 1.5 4.4 64 2.9 W 43 56 23 30 1011.2 1011.3 3.4
19/02:34pm 11.0 2.1 4.9 66 2.8 W 41 59 22 32 1011.1 - 3.4
19/02:30pm 11.0 1.5 4.9 66 2.8 W 44 59 24 32 1011.1 - 3.4
19/02:00pm 10.8 1.4 4.7 66 2.8 W 43 65 23 35 1010.5 - 3.4
19/01:46pm 10.8 2.3 5.1 68 2.6 W 39 57 21 31 1010.4 - 3.4
19/01:30pm 10.7 1.5 5.3 69 2.5 W 43 57 23 31 1010.1 - 3.4
19/01:00pm 10.4 1.8 4.5 67 2.7 W 39 57 21 31 1009.9 - 3.4
19/12:34pm 10.0 0.7 5.2 72 2.2 W 43 61 23 33 1009.7 - 3.4
19/12:30pm 10.0 1.2 5.4 73 2.1 W 41 57 22 31 1009.8 - 3.4
19/12:00pm 8.9 0.9 5.5 79 1.5 W 37 52 20 28 1010.1 1010.2 3.4
19/11:45am 8.7 -1.8 5.6 81 1.4 WSW 50 69 27 37 1009.5 - 3.4
19/11:30am 8.2 -2.4 5.3 82 1.3 SW 50 67 27 36 1009.4 - 3.4
19/11:25am 8.0 -3.7 5.1 82 1.3 SW 56 76 30 41 1009.3 - 3.4
19/11:20am 8.4 -5.4 5.3 81 1.4 SW 67 76 36 41 1008.8 - 3.2
19/11:00am 7.4 0.1 4.7 83 1.2 W 32 57 17 31 1009.9 - 3.2
19/10:30am 7.3 -1.7 4.8 84 1.1 W 41 61 22 33 1009.4 - 1.8
19/10:10am 7.6 0.8 5.1 84 1.1 W 30 50 16 27 1009.7 - 1.0
19/10:00am 8.2 2.7 5.8 85 1.1 WNW 24 33 13 18 1009.5 - 0.4
19/09:30am 7.6 1.6 5.2 85 1.1 WNW 26 35 14 19 1009.4 - 0.4
19/09:00am 7.5 1.1 5.1 85 1.1 W 28 39 15 21 1009.3 1009.4 17.2
19/08:30am 7.5 0.3 5.1 85 1.1 WSW 32 44 17 24 1008.8 - 16.0
19/08:26am 7.6 0.2 5.2 85 1.1 WSW 33 52 18 28 1008.8 - 15.6
19/08:00am 7.7 0.6 5.5 86 1.0 W 32 48 17 26 1008.2 - 15.0
19/07:35am 7.2 -2.3 4.9 85 1.0 W 44 63 24 34 1008.1 - 14.0
19/07:30am 7.4 -3.2 4.9 84 1.1 W 50 65 27 35 1007.9 - 14.0
19/07:05am 8.3 2.0 5.8 84 1.1 W 28 56 15 30 1007.4 - 13.4
19/07:00am 8.5 3.0 6.0 84 1.1 W 24 37 13 20 1007.7 - 13.4
19/06:30am 8.1 2.9 5.6 84 1.1 NNW 22 39 12 21 1007.6 - 12.8
19/06:00am 8.1 1.0 5.7 85 1.1 WNW 32 46 17 25 1007.2 1007.2 12.8
19/05:58am 8.0 0.7 5.6 85 1.1 WNW 33 46 18 25 1007.3 - 12.8
19/05:30am 8.1 -1.7 5.4 83 1.2 W 46 69 25 37 1006.9 - 11.6
19/05:24am 8.5 -2.0 5.6 82 1.3 WSW 50 69 27 37 1006.4 - 11.2
19/05:22am 8.8 -2.8 5.9 82 1.3 WSW 56 69 30 37 1006.1 - 10.8
19/05:14am 8.8 1.7 5.4 79 1.5 W 32 50 17 27 1006.7 - 10.4
19/05:00am 8.6 0.9 5.2 79 1.5 W 35 48 19 26 1006.6 - 10.4
19/04:30am 8.6 0.6 5.9 83 1.2 W 37 50 20 27 1006.5 - 10.0
19/04:01am 9.3 2.9 7.1 86 1.0 W 30 48 16 26 1006.5 - 9.4
19/04:00am 9.3 2.5 7.1 86 1.0 W 32 48 17 26 1006.5 - 9.4
19/03:46am 9.4 3.0 7.0 85 1.1 W 30 54 16 29 1006.2 - 9.2
19/03:30am 9.6 4.0 7.2 85 1.1 W 26 39 14 21 1006.6 - 9.0
19/03:00am 9.2 3.2 7.0 86 1.0 W 28 43 15 23 1006.4 1006.4 9.0
19/02:30am 9.5 3.2 7.3 86 1.0 W 30 52 16 28 1006.2 - 8.6
19/02:01am 9.5 3.5 7.1 85 1.1 WNW 28 48 15 26 1007.1 - 8.6
19/02:00am 9.6 4.0 7.2 85 1.1 WNW 26 48 14 26 1007.0 - 8.6
19/01:59am 9.5 3.5 7.1 85 1.1 WNW 28 48 15 26 1006.9 - 8.6
19/01:30am 9.5 6.0 7.1 85 1.1 WNW 15 35 8 19 1008.1 - 8.6
19/01:00am 9.7 4.5 7.3 85 1.1 WNW 24 48 13 26 1008.4 - 8.2
19/12:30am 9.7 3.8 7.5 86 1.1 WNW 28 54 15 29 1008.4 - 8.0
19/12:05am 9.7 3.4 7.5 86 1.1 WNW 30 48 16 26 1008.6 - 7.4
19/12:00am 9.5 3.9 7.3 86 1.0 W 26 41 14 22 1008.6 1008.7 7.0
 
Date/Time
EST
Temp
°C
App
Temp
°C
Dew
Point
°C
Rel
Hum
%
Delta-T
°C
Wind Press
QNH
hPa
Press
MSL
hPa
Rain since
9am
mm
Dir  Spd
km/h
Gust
km/h
Spd
kts
Gust
kts
18/11:43pm 9.8 3.2 7.6 86 1.1 W 32 50 17 27 1008.4 - 6.2
18/11:30pm 10.0 3.4 7.8 86 1.1 W 32 48 17 26 1008.3 - 5.0
18/11:00pm 10.0 3.7 7.6 85 1.2 W 30 43 16 23 1008.4 - 4.6
18/10:47pm 10.2 4.4 7.8 85 1.2 W 28 48 15 26 1008.5 - 3.6
18/10:30pm 10.3 4.1 7.9 85 1.2 W 30 41 16 22 1008.1 - 3.0
18/10:00pm 10.1 4.2 7.7 85 1.2 W 28 39 15 21 1008.2 - 3.0
18/09:30pm 10.6 4.9 8.2 85 1.2 W 28 46 15 25 1008.5 - 2.6
18/09:27pm 10.6 4.8 8.0 84 1.3 W 28 46 15 25 1008.4 - 2.6
18/09:00pm 10.5 4.9 7.0 79 1.7 W 26 35 14 19 1008.6 1008.7 1.4
18/08:30pm 11.3 4.5 6.8 74 2.1 W 32 44 17 24 1008.4 - 0.0
18/08:00pm 12.5 6.2 7.2 70 2.6 W 30 46 16 25 1008.2 - 0.0
18/07:54pm 12.9 5.1 6.5 65 3.1 W 37 50 20 27 1007.9 - 0.0
18/07:30pm 13.7 10.0 4.3 53 4.3 WNW 13 32 7 17 1007.8 - 0.0
18/07:00pm 13.9 10.1 3.9 51 4.6 NW 13 28 7 15 1007.3 - 0.0
18/06:30pm 13.8 8.7 3.9 51 4.5 NNW 20 43 11 23 1007.4 - 0.0
18/06:06pm 13.9 7.3 4.2 52 4.5 NNW 28 54 15 29 1007.3 - 0.0
18/06:00pm 13.7 7.9 4.3 53 4.3 NNW 24 43 13 23 1007.3 1007.3 0.0
18/05:44pm 13.4 6.9 4.8 56 4.0 NNW 28 57 15 31 1007.7 - 0.0
18/05:30pm 13.6 8.5 4.2 53 4.3 NNW 20 37 11 20 1007.8 - 0.0
18/05:00pm 13.7 8.9 4.8 55 4.1 NW 19 37 10 20 1007.7 - 0.0
18/04:39pm 14.2 8.6 5.3 55 4.2 NW 24 61 13 33 1007.4 - 0.0
18/04:30pm 14.4 6.3 5.2 54 4.3 W 37 65 20 35 1007.1 - 0.0
18/04:00pm 15.0 5.6 5.5 53 4.5 W 44 67 24 36 1006.3 - 0.0
18/03:30pm 16.4 7.6 3.8 43 5.9 W 39 74 21 40 1005.6 - 0.0
18/03:08pm 17.7 9.3 1.7 34 7.2 W 35 80 19 43 1005.0 - 0.0
18/03:03pm 17.8 10.6 0.9 32 7.5 W 28 59 15 32 1005.3 - 0.0
18/03:00pm 17.7 10.8 0.4 31 7.6 W 26 56 14 30 1005.6 1005.6 0.0
18/02:49pm 17.9 10.7 0.6 31 7.6 W 28 54 15 29 1005.8 - 0.0
18/02:30pm 18.1 13.4 0.7 31 7.7 NW 15 33 8 18 1006.3 - 0.0
18/02:15pm 18.5 11.2 0.2 29 8.0 W 28 61 15 33 1005.8 - 0.0
18/02:00pm 19.1 14.5 -0.8 26 8.6 NNW 13 28 7 15 1005.6 - 0.0
18/01:30pm 20.1 13.7 -1.7 23 9.4 W 22 41 12 22 1005.8 - 0.0
18/01:00pm 19.6 11.1 -2.1 23 9.2 NNW 33 59 18 32 1005.2 - 0.0
18/12:30pm 19.8 10.9 -1.9 23 9.3 NNW 35 65 19 35 1006.1 - 0.0
18/12:24pm 19.8 12.3 -1.3 24 9.1 NNW 28 65 15 35 1006.0 - 0.0
18/12:00pm 19.9 14.5 -1.2 24 9.2 NNW 17 48 9 26 1006.4 1006.4 0.0
18/11:31am 19.9 12.3 -1.8 23 9.3 N 28 50 15 27 1006.8 - 0.0
18/11:30am 20.0 12.9 -1.2 24 9.2 N 26 46 14 25 1007.0 - 0.0
18/11:00am 19.3 11.8 -1.2 25 8.8 N 28 50 15 27 1007.2 - 0.0
18/10:30am 18.5 10.0 -1.9 25 8.6 NNW 33 61 18 33 1007.8 - 0.0
18/10:00am 17.8 8.8 -3.0 24 8.5 NNW 35 76 19 41 1008.0 - 0.0
18/09:30am 17.4 8.0 -2.8 25 8.3 NNW 37 70 20 38 1008.4 - 0.0
18/09:00am 17.0 7.6 -3.1 25 8.2 NNW 37 61 20 33 1008.8 1008.9 0.0
18/08:30am 17.0 6.7 -3.7 24 8.3 NNW 41 85 22 46 1008.7 - 0.0
18/08:29am 17.0 7.1 -3.7 24 8.3 NNW 39 85 21 46 1008.8 - 0.0
18/08:00am 16.7 7.6 -3.4 25 8.1 N 35 65 19 35 1009.1 - 0.0
18/07:30am 15.6 7.1 -3.3 27 7.5 N 32 54 17 29 1009.3 - 0.0
18/07:00am 15.4 7.3 -3.0 28 7.3 N 30 54 16 29 1009.5 - 0.0
18/06:30am 15.3 6.6 -3.1 28 7.3 N 33 59 18 32 1009.7 - 0.0
18/06:00am 15.5 7.4 -3.4 27 7.5 N 30 54 16 29 1009.9 1010.0 0.0
18/05:30am 15.2 6.5 -3.2 28 7.3 N 33 57 18 31 1010.1 - 0.0
18/05:00am 15.3 5.9 -2.6 29 7.2 N 37 74 20 40 1009.9 - 0.0
18/04:30am 15.2 5.8 -2.7 29 7.2 N 37 65 20 35 1010.0 - 0.0
18/04:00am 15.2 6.3 -2.2 30 7.1 NNW 35 74 19 40 1010.1 - 0.0
18/03:30am 14.9 6.6 -1.6 32 6.8 NNW 32 63 17 34 1010.7 - 0.0
18/03:00am 14.0 6.6 -0.8 36 6.1 N 28 57 15 31 1011.3 1011.4 0.0
18/02:52am 14.4 6.9 -1.2 34 6.4 N 28 48 15 26 1011.3 - 0.0
18/02:30am 12.7 6.8 2.0 48 4.6 N 22 39 12 21 1011.8 - 0.0
18/02:00am 12.5 7.2 2.1 49 4.5 N 19 35 10 19 1012.2 - 0.0
18/01:30am 11.4 6.2 2.7 55 3.8 N 19 28 10 15 1012.5 - 0.0
18/01:00am 11.3 5.6 2.6 55 3.8 N 22 30 12 16 1012.8 - 0.0
18/12:30am 11.4 6.0 2.7 55 3.8 N 20 30 11 16 1013.1 - 0.0
18/12:00am 11.8 6.1 2.8 54 3.9 NNE 22 33 12 18 1013.3 1013.4 0.0
 
Date/Time
EST
Temp
°C
App
Temp
°C
Dew
Point
°C
Rel
Hum
%
Delta-T
°C
Wind Press
QNH
hPa
Press
MSL
hPa
Rain since
9am
mm
Dir  Spd
km/h
Gust
km/h
Spd
kts
Gust
kts
17/11:30pm 11.9 6.4 3.9 58 3.6 NNE 22 32 12 17 1013.8 - 0.0

Other Formats:

Comma delimited format used in spreadsheet applications
http://www.bom.gov.au/fwo/IDV60801/IDV60801.94893.axf

JavaScript Object Notation format (JSON) in row-major order
http://www.bom.gov.au/fwo/IDV60801/IDV60801.94893.json